Time;durP1;ratioP1;P1;durP2;ratioP2;P2;SDS_P1;SDS_P2;PMS_P1;PMS_P2;Temp;Humidity;BMP_temperature;BMP_pressure;BME280_temperature;BME280_humidity;BME280_pressure;Samples;Min_cycle;Max_cycle;Signal;HPM_P1;HPM_P2
2022/05/20 00:00:18;;;;;;;;;;;;;;;13.32;59.56;100417.03;4946340;28;1973;-92
2022/05/20 00:02:44;;;;;;;;;;;;;;;13.31;59.46;100407.28;4970600;28;2577;-92
2022/05/20 00:05:11;;;;;;;;;;;;;;;13.31;59.61;100407.28;4942384;28;3726;-92
2022/05/20 00:07:39;;;;;;;;;;;;;;;13.30;59.52;100406.47;4950503;28;1938;-93
2022/05/20 00:10:06;;;;;;;;;;;;;;;13.31;59.49;100407.28;4953345;28;2260;-92
2022/05/20 00:12:32;;;;;;;;;;;;;;;13.30;59.52;100398.34;4964446;28;2524;-92
2022/05/20 00:14:59;;;;;;;;;;;;;;;13.30;59.51;100392.94;4971658;28;2655;-92
2022/05/20 00:17:25;;;;;;;;;;;;;;;13.30;59.49;100397.53;4947812;28;4696;-92
2022/05/20 00:19:52;;;;;;;;;;;;;;;13.29;59.44;100391.28;4972290;28;2140;-93
2022/05/20 00:22:19;;;;;;;;;;;;;;;13.29;59.34;100399.38;4962960;28;1523;-92
2022/05/20 00:27:29;;;;;;;;;;;;;;;13.29;59.60;100402.09;4949519;28;2188;-92
2022/05/20 00:29:56;;;;;;;;;;;;;;;13.28;59.45;100403.16;4970132;28;4325;-92
2022/05/20 00:32:23;;;;;;;;;;;;;;;13.28;59.27;100399.66;4951183;28;4142;-91
2022/05/20 00:34:49;;;;;;;;;;;;;;;13.27;59.34;100395.31;4951083;28;2170;-92
2022/05/20 00:37:16;;;;;;;;;;;;;;;13.26;59.49;100399.06;4968950;28;2321;-92
2022/05/20 00:39:42;;;;;;;;;;;;;;;13.27;59.52;100400.72;4955913;29;2022;-92
2022/05/20 00:42:09;;;;;;;;;;;;;;;13.26;59.30;100401.75;4951201;28;3211;-92
2022/05/20 00:44:35;;;;;;;;;;;;;;;13.26;59.21;100396.34;4951146;28;4337;-92
2022/05/20 00:47:02;;;;;;;;;;;;;;;13.26;59.42;100397.16;4951972;28;1621;-92
2022/05/20 00:49:29;;;;;;;;;;;;;;;13.25;59.27;100394.69;4961067;28;1644;-92
2022/05/20 00:51:55;;;;;;;;;;;;;;;13.25;59.19;100394.69;4971535;28;2184;-92
2022/05/20 00:54:22;;;;;;;;;;;;;;;13.25;59.38;100400.09;4952397;28;4176;-92
2022/05/20 00:56:49;;;;;;;;;;;;;;;13.24;59.29;100401.16;4957289;28;1272;-92
2022/05/20 00:59:15;;;;;;;;;;;;;;;13.24;59.43;100403.88;4957966;28;1832;-92
2022/05/20 01:01:42;;;;;;;;;;;;;;;13.23;59.33;100394.91;4976160;28;1967;-92
2022/05/20 01:04:08;;;;;;;;;;;;;;;13.22;59.52;100390.56;4956881;28;1733;-92
2022/05/20 01:06:35;;;;;;;;;;;;;;;13.22;59.29;100389.75;4950921;28;5004;-92
2022/05/20 01:09:01;;;;;;;;;;;;;;;13.22;59.21;100396.00;4958698;28;2222;-92
2022/05/20 01:11:28;;;;;;;;;;;;;;;13.21;59.25;100386.25;4953923;28;1919;-92
2022/05/20 01:13:54;;;;;;;;;;;;;;;13.21;59.36;100380.00;4981354;28;2092;-92
2022/05/20 01:16:21;;;;;;;;;;;;;;;13.21;59.26;100388.09;4963369;28;2319;-92
2022/05/20 01:18:48;;;;;;;;;;;;;;;13.20;59.23;100384.59;4943599;28;1630;-92
2022/05/20 01:21:14;;;;;;;;;;;;;;;13.19;59.36;100380.25;4952921;28;3998;-93
2022/05/20 01:23:41;;;;;;;;;;;;;;;13.19;59.33;100377.53;4953033;28;2686;-93
2022/05/20 01:26:07;;;;;;;;;;;;;;;13.17;59.41;100375.06;4967041;28;4825;-92
2022/05/20 01:28:34;;;;;;;;;;;;;;;13.19;59.28;100375.66;4948483;28;1494;-92
2022/05/20 01:31:00;;;;;;;;;;;;;;;13.18;59.20;100378.63;4946192;28;2462;-92
2022/05/20 01:33:27;;;;;;;;;;;;;;;13.17;59.30;100377.75;4966791;28;1370;-92
2022/05/20 01:35:53;;;;;;;;;;;;;;;13.18;59.27;100370.50;4962791;28;3884;-91
2022/05/20 01:38:20;;;;;;;;;;;;;;;13.16;59.24;100376.13;4950749;28;2277;-92
2022/05/20 01:40:46;;;;;;;;;;;;;;;13.17;59.12;100377.75;4962187;28;2220;-92
2022/05/20 01:43:13;;;;;;;;;;;;;;;13.16;59.04;100372.63;4959446;28;2141;-92
2022/05/20 01:45:39;;;;;;;;;;;;;;;13.15;59.33;100382.63;4949189;28;4118;-92
2022/05/20 01:48:06;;;;;;;;;;;;;;;13.15;59.25;100371.81;4950355;28;2210;-92
2022/05/20 01:50:33;;;;;;;;;;;;;;;13.15;59.03;100371.81;4963674;28;1908;-92
2022/05/20 01:52:59;;;;;;;;;;;;;;;13.15;59.34;100379.09;4966456;28;3743;-92
2022/05/20 01:55:26;;;;;;;;;;;;;;;13.14;59.19;100378.25;4961941;28;2482;-93
2022/05/20 01:57:52;;;;;;;;;;;;;;;13.13;59.34;100382.03;4967223;28;2823;-92
2022/05/20 02:00:19;;;;;;;;;;;;;;;13.13;58.96;100386.63;4964169;28;2272;-92
2022/05/20 02:02:45;;;;;;;;;;;;;;;13.13;59.06;100397.44;4959737;28;1189;-92
2022/05/20 02:05:12;;;;;;;;;;;;;;;13.13;59.35;100392.03;4966569;28;4960;-92
2022/05/20 02:07:38;;;;;;;;;;;;;;;13.12;59.06;100383.09;4965155;28;2360;-92
2022/05/20 02:10:05;;;;;;;;;;;;;;;13.11;59.16;100373.31;4957525;28;2165;-92
2022/05/20 02:12:31;;;;;;;;;;;;;;;13.11;59.26;100377.91;4956709;28;1973;-91
2022/05/20 02:14:57;;;;;;;;;;;;;;;13.11;59.14;100380.63;4957176;28;2448;-91
2022/05/20 02:17:25;;;;;;;;;;;;;;;13.11;59.04;100381.44;4946269;28;4658;-92
2022/05/20 02:19:52;;;;;;;;;;;;;;;13.11;59.13;100380.63;4948554;28;2140;-92
2022/05/20 02:22:18;;;;;;;;;;;;;;;13.11;59.10;100388.72;4942369;28;2148;-92
2022/05/20 02:24:45;;;;;;;;;;;;;;;13.09;59.15;100378.19;4949259;28;2166;-92
2022/05/20 02:27:11;;;;;;;;;;;;;;;13.09;59.10;100380.06;4964729;28;2241;-92
2022/05/20 02:29:38;;;;;;;;;;;;;;;13.09;59.23;100374.66;4953418;29;2161;-92
2022/05/20 02:32:04;;;;;;;;;;;;;;;13.09;58.97;100374.66;4962610;28;3776;-92
2022/05/20 02:34:34;;;;;;;;;;;;;;;13.08;59.18;100376.50;4958937;28;1816;-92
2022/05/20 02:37:00;;;;;;;;;;;;;;;13.07;59.00;100383.00;4966075;28;2231;-92
2022/05/20 02:39:27;;;;;;;;;;;;;;;13.08;59.16;100390.03;4952766;28;2064;-92
2022/05/20 02:41:54;;;;;;;;;;;;;;;13.08;59.14;100383.81;4960332;28;5001;-91
2022/05/20 02:44:20;;;;;;;;;;;;;;;13.07;59.13;100388.41;4946542;28;4073;-91
2022/05/20 02:46:47;;;;;;;;;;;;;;;13.07;59.05;100384.88;4960075;28;1933;-92
2022/05/20 02:49:13;;;;;;;;;;;;;;;13.05;59.07;100385.09;4940091;28;1988;-92
2022/05/20 02:51:40;;;;;;;;;;;;;;;13.06;59.09;100381.34;4962276;28;2461;-92
2022/05/20 02:54:06;;;;;;;;;;;;;;;13.05;59.02;100381.59;4967021;28;4902;-92
2022/05/20 02:56:33;;;;;;;;;;;;;;;13.06;59.07;100375.09;4970039;28;2038;-92
2022/05/20 03:04:28;;;;;;;;;;;;;;;13.04;58.94;100372.66;4950246;28;2701;-92
2022/05/20 03:06:54;;;;;;;;;;;;;;;13.03;58.95;100370.19;4943768;28;5012;-92
2022/05/20 03:09:21;;;;;;;;;;;;;;;13.03;58.98;100370.19;4962512;28;2196;-92
2022/05/20 03:11:47;;;;;;;;;;;;;;;13.03;58.91;100370.19;4967338;28;4004;-91
2022/05/20 03:14:14;;;;;;;;;;;;;;;13.02;59.00;100368.56;4958340;28;2142;-91
2022/05/20 03:16:40;;;;;;;;;;;;;;;13.01;58.76;100359.63;4960151;28;5149;-92
2022/05/20 03:19:07;;;;;;;;;;;;;;;13.03;59.00;100367.47;4955981;28;2046;-92
2022/05/20 03:21:33;;;;;;;;;;;;;;;13.01;58.85;100358.81;4944370;28;2017;-92
2022/05/20 03:24:01;;;;;;;;;;;;;;;13.01;58.98;100358.81;4975358;28;2199;-92
2022/05/20 03:26:27;;;;;;;;;;;;;;;13.01;58.76;100356.09;4953686;28;2265;-92
2022/05/20 03:28:54;;;;;;;;;;;;;;;13.00;58.95;100360.69;4947253;28;1182;-92
2022/05/20 03:31:21;;;;;;;;;;;;;;;13.00;58.98;100368.81;4965129;28;4254;-92
2022/05/20 03:33:47;;;;;;;;;;;;;;;12.99;58.61;100361.75;4975762;28;2032;-92
2022/05/20 03:36:14;;;;;;;;;;;;;;;12.99;58.90;100363.63;4964841;28;2175;-92
2022/05/20 03:38:40;;;;;;;;;;;;;;;12.99;58.79;100366.31;4957353;28;2010;-92
2022/05/20 03:41:07;;;;;;;;;;;;;;;12.97;58.66;100366.59;4956814;28;2352;-92
2022/05/20 03:43:34;;;;;;;;;;;;;;;12.98;58.86;100365.50;4976136;28;2099;-92
2022/05/20 03:46:00;;;;;;;;;;;;;;;12.99;58.69;100374.44;4955344;28;4273;-92
2022/05/20 03:48:27;;;;;;;;;;;;;;;12.98;58.61;100380.91;4975566;28;2094;-92
2022/05/20 03:50:53;;;;;;;;;;;;;;;12.98;58.86;100380.91;4960232;28;2283;-92
2022/05/20 03:53:20;;;;;;;;;;;;;;;12.96;58.77;100383.84;4963531;28;2655;-92
2022/05/20 03:55:46;;;;;;;;;;;;;;;12.97;58.67;100382.81;4957339;28;4309;-92
2022/05/20 03:58:13;;;;;;;;;;;;;;;12.96;58.69;100381.97;4947270;28;1955;-92
2022/05/20 04:03:21;;;;;;;;;;;;;;;12.94;58.72;100384.09;4942771;28;1662;-92
2022/05/20 04:05:47;;;;;;;;;;;;;;;12.94;58.67;100386.81;4956982;28;2331;-92
2022/05/20 04:08:14;;;;;;;;;;;;;;;12.95;58.78;100398.44;4952104;28;1202;-92
2022/05/20 04:10:41;;;;;;;;;;;;;;;12.94;58.66;100396.78;4956448;28;4441;-90
2022/05/20 04:13:07;;;;;;;;;;;;;;;12.93;58.54;100409.47;4958181;29;3953;-92
2022/05/20 04:15:34;;;;;;;;;;;;;;;12.94;58.65;100402.19;4967509;28;2083;-92
2022/05/20 04:18:00;;;;;;;;;;;;;;;12.93;58.71;100406.75;4952627;28;1521;-92
2022/05/20 04:20:27;;;;;;;;;;;;;;;12.93;58.77;100405.94;4960340;28;4911;-91
2022/05/20 04:22:53;;;;;;;;;;;;;;;12.92;58.58;100410.53;4946121;28;2302;-92
2022/05/20 04:25:20;;;;;;;;;;;;;;;12.92;58.69;100421.34;4952725;28;2162;-92
2022/05/20 04:27:46;;;;;;;;;;;;;;;12.90;58.65;100411.81;4959882;29;949;-92
2022/05/20 04:30:13;;;;;;;;;;;;;;;12.91;58.71;100414.31;4942546;28;2478;-91
2022/05/20 04:32:39;;;;;;;;;;;;;;;12.90;58.60;100417.25;4965985;28;2121;-92
2022/05/20 04:35:06;;;;;;;;;;;;;;;12.90;58.63;100418.06;4968739;28;4196;-92
2022/05/20 04:37:32;;;;;;;;;;;;;;;12.90;58.66;100420.75;4970851;28;4534;-92
2022/05/20 04:39:59;;;;;;;;;;;;;;;12.89;58.69;100421.00;4971402;28;2023;-92
2022/05/20 04:47:54;;;;;;;;;;;;;;;12.89;58.79;100424.53;4967502;28;1089;-92
2022/05/20 04:50:20;;;;;;;;;;;;;;;12.89;58.69;100426.41;4958650;28;4875;-92
2022/05/20 04:52:47;;;;;;;;;;;;;;;12.88;58.44;100422.06;4966864;28;2338;-92
2022/05/20 04:55:12;;;;;;;;;;;;;;;12.88;58.89;100427.47;4960494;28;2014;-92
2022/05/20 04:57:41;;;;;;;;;;;;;;;12.88;58.67;100424.75;4966916;28;4324;-93
2022/05/20 05:00:07;;;;;;;;;;;;;;;12.86;58.61;100425.00;4963024;28;1705;-92
2022/05/20 05:02:33;;;;;;;;;;;;;;;12.87;58.45;100421.22;4960969;28;1373;-92
2022/05/20 05:05:00;;;;;;;;;;;;;;;12.87;58.58;100420.41;4957005;28;2257;-92
2022/05/20 05:07:27;;;;;;;;;;;;;;;12.87;58.52;100417.72;4970465;28;2131;-92
2022/05/20 05:09:53;;;;;;;;;;;;;;;12.86;58.59;100419.59;4963046;28;2462;-92
2022/05/20 05:12:20;;;;;;;;;;;;;;;12.87;58.47;100426.63;4970286;28;1941;-92
2022/05/20 05:14:47;;;;;;;;;;;;;;;12.85;58.56;100420.66;4939524;28;4967;-92
2022/05/20 05:17:15;;;;;;;;;;;;;;;12.86;58.49;100422.31;4970068;28;2353;-91
2022/05/20 05:19:41;;;;;;;;;;;;;;;12.86;58.61;100426.88;4951369;28;2020;-92
2022/05/20 05:22:08;;;;;;;;;;;;;;;12.85;58.40;100425.22;4959210;28;2376;-93
2022/05/20 05:24:34;;;;;;;;;;;;;;;12.85;58.38;100425.22;4951028;28;4881;-95
2022/05/20 05:27:01;;;;;;;;;;;;;;;12.85;58.52;100426.06;4952385;28;2043;-93
2022/05/20 05:29:27;;;;;;;;;;;;;;;12.86;58.27;100432.28;4956842;28;1686;-93
2022/05/20 05:31:55;;;;;;;;;;;;;;;12.85;58.50;100433.34;4953136;28;4716;-92
2022/05/20 05:34:21;;;;;;;;;;;;;;;12.85;58.52;100436.03;4947879;28;2185;-92
2022/05/20 05:36:47;;;;;;;;;;;;;;;12.85;58.52;100441.44;4975529;28;2768;-91
2022/05/20 05:39:14;;;;;;;;;;;;;;;12.84;58.52;100439.81;4969190;28;2411;-90
2022/05/20 05:41:40;;;;;;;;;;;;;;;12.84;58.53;100437.94;4945949;28;4301;-92
2022/05/20 05:44:07;;;;;;;;;;;;;;;12.85;58.50;100441.44;4948891;28;2243;-92
2022/05/20 05:46:34;;;;;;;;;;;;;;;12.84;58.44;100429.00;4942626;28;2100;-92
2022/05/20 05:49:00;;;;;;;;;;;;;;;12.84;58.37;100437.09;4947849;28;1847;-92
2022/05/20 05:51:26;;;;;;;;;;;;;;;12.84;58.45;100440.63;4965390;28;4988;-92
2022/05/20 05:53:53;;;;;;;;;;;;;;;12.83;58.28;100438.19;4957777;28;3893;-92
2022/05/20 05:56:19;;;;;;;;;;;;;;;12.83;58.38;100443.59;4973195;28;2300;-91
2022/05/20 05:58:46;;;;;;;;;;;;;;;12.82;58.38;100437.34;4955128;28;2004;-92
2022/05/20 06:01:13;;;;;;;;;;;;;;;12.83;58.39;100439.00;4952270;28;2872;-93
2022/05/20 06:03:40;;;;;;;;;;;;;;;12.84;58.55;100437.94;4950458;28;1658;-93
2022/05/20 06:06:06;;;;;;;;;;;;;;;12.82;58.39;100434.63;4945728;28;4885;-92
2022/05/20 06:08:33;;;;;;;;;;;;;;;12.82;58.41;100439.22;4956504;28;2237;-93
2022/05/20 06:10:59;;;;;;;;;;;;;;;12.83;58.26;100440.88;4966471;28;3857;-94
2022/05/20 06:13:26;;;;;;;;;;;;;;;12.83;58.37;100436.28;4956526;28;2236;-93
2022/05/20 06:15:52;;;;;;;;;;;;;;;12.83;58.31;100443.59;4967334;28;4407;-91
2022/05/20 06:18:19;;;;;;;;;;;;;;;12.83;58.18;100435.47;4965199;28;1036;-91
2022/05/20 06:20:46;;;;;;;;;;;;;;;12.82;58.32;100439.22;4964068;28;1955;-91
2022/05/20 06:23:12;;;;;;;;;;;;;;;12.82;58.41;100440.03;4968199;28;2365;-92
2022/05/20 06:25:38;;;;;;;;;;;;;;;12.82;58.39;100442.72;4967308;28;4283;-92
2022/05/20 06:28:05;;;;;;;;;;;;;;;12.81;58.28;100446.50;4965962;28;2023;-92
2022/05/20 06:30:32;;;;;;;;;;;;;;;12.82;58.40;100448.13;4942632;29;3086;-92
2022/05/20 06:32:59;;;;;;;;;;;;;;;12.81;58.22;100449.22;4951133;28;1906;-92
2022/05/20 06:40:55;;;;;;;;;;;;;;;12.81;58.48;100434.88;4957715;28;4493;-92
2022/05/20 06:43:22;;;;;;;;;;;;;;;12.82;58.25;100445.44;4956326;28;1201;-92
2022/05/20 06:45:48;;;;;;;;;;;;;;;12.81;58.21;100448.41;4948010;28;2040;-92
2022/05/20 06:48:15;;;;;;;;;;;;;;;12.81;58.38;100443.81;4957080;28;1556;-92
2022/05/20 06:50:42;;;;;;;;;;;;;;;12.81;58.43;100445.69;4962537;28;4906;-92
2022/05/20 06:53:09;;;;;;;;;;;;;;;12.81;58.33;100449.22;4966844;28;1991;-92
2022/05/20 06:55:35;;;;;;;;;;;;;;;12.81;58.55;100451.09;4969104;28;2039;-92
2022/05/20 06:58:02;;;;;;;;;;;;;;;12.80;58.29;100442.19;4944322;29;1324;-92
2022/05/20 07:00:29;;;;;;;;;;;;;;;12.82;58.50;100445.44;4968975;28;2381;-92
2022/05/20 07:02:55;;;;;;;;;;;;;;;12.81;58.35;100441.09;4951837;28;1158;-91
2022/05/20 07:05:22;;;;;;;;;;;;;;;12.81;58.38;100426.78;4956763;28;3966;-91
2022/05/20 07:07:48;;;;;;;;;;;;;;;12.81;58.26;100430.28;4952116;29;1161;-92
2022/05/20 07:10:15;;;;;;;;;;;;;;;12.82;58.21;100431.94;4974016;28;2081;-91
2022/05/20 07:12:41;;;;;;;;;;;;;;;12.81;58.53;100424.88;4958792;28;1902;-91
2022/05/20 07:15:08;;;;;;;;;;;;;;;12.81;58.39;100426.78;4971872;28;4835;-91
2022/05/20 07:17:34;;;;;;;;;;;;;;;12.81;58.52;100427.59;4953870;28;4029;-91
2022/05/20 07:20:01;;;;;;;;;;;;;;;12.81;58.42;100430.28;4944086;28;1966;-90
2022/05/20 07:22:28;;;;;;;;;;;;;;;12.83;58.29;100439.00;4948327;29;1352;-92
2022/05/20 07:24:55;;;;;;;;;;;;;;;12.83;58.46;100435.47;4963768;28;1913;-92
2022/05/20 07:27:22;;;;;;;;;;;;;;;12.81;58.33;100427.59;4946883;28;2635;-91
2022/05/20 07:29:48;;;;;;;;;;;;;;;12.83;58.44;100440.88;4958622;28;2211;-91
2022/05/20 07:32:15;;;;;;;;;;;;;;;12.82;58.34;100437.34;4974096;28;1906;-92
2022/05/20 07:34:41;;;;;;;;;;;;;;;12.82;58.45;100429.22;4964534;28;1380;-91
2022/05/20 07:37:08;;;;;;;;;;;;;;;12.81;58.35;100430.28;4957861;28;4953;-91
2022/05/20 07:39:34;;;;;;;;;;;;;;;12.84;58.28;100437.09;4956682;29;954;-91
2022/05/20 07:42:01;;;;;;;;;;;;;;;12.83;58.40;100444.41;4948026;29;4204;-92
2022/05/20 07:44:27;;;;;;;;;;;;;;;12.84;58.35;100445.22;4939583;29;1332;-92
2022/05/20 07:46:54;;;;;;;;;;;;;;;12.84;58.22;100439.81;4960171;28;5009;-92
2022/05/20 07:49:20;;;;;;;;;;;;;;;12.83;58.44;100439.00;4941331;28;1975;-91
2022/05/20 07:51:47;;;;;;;;;;;;;;;12.84;58.23;100437.09;4967811;28;1972;-91
2022/05/20 07:54:13;;;;;;;;;;;;;;;12.84;58.39;100440.63;4964966;28;3567;-92
2022/05/20 07:56:40;;;;;;;;;;;;;;;12.84;58.40;100440.63;4967337;28;2430;-92
2022/05/20 07:59:07;;;;;;;;;;;;;;;12.85;58.30;100442.28;4971061;28;1384;-92
2022/05/20 08:01:33;;;;;;;;;;;;;;;12.86;58.34;100437.69;4974591;28;2028;-92
2022/05/20 08:06:44;;;;;;;;;;;;;;;12.85;58.19;100442.28;4960627;28;4036;-92
2022/05/20 08:09:10;;;;;;;;;;;;;;;12.85;58.39;100445.00;4942668;29;2013;-91
2022/05/20 08:11:37;;;;;;;;;;;;;;;12.86;58.35;100440.41;4947013;29;2053;-91
2022/05/20 08:14:04;;;;;;;;;;;;;;;12.87;58.14;100442.03;4955223;28;1305;-92
2022/05/20 08:16:30;;;;;;;;;;;;;;;12.87;58.15;100442.84;4951878;28;2353;-92
2022/05/20 08:18:57;;;;;;;;;;;;;;;12.88;58.22;100440.97;4960912;28;2079;-91
2022/05/20 08:21:23;;;;;;;;;;;;;;;12.88;58.31;100443.66;4958920;28;2093;-92
2022/05/20 08:23:50;;;;;;;;;;;;;;;12.88;58.41;100447.22;4947804;28;2107;-91
2022/05/20 08:26:18;;;;;;;;;;;;;;;12.89;58.13;100443.44;4956875;28;2580;-91
2022/05/20 08:28:44;;;;;;;;;;;;;;;12.89;58.14;100443.44;4968236;28;1169;-92
2022/05/20 08:31:11;;;;;;;;;;;;;;;12.90;58.27;100436.97;4977885;28;1979;-91
2022/05/20 08:33:37;;;;;;;;;;;;;;;12.90;58.16;100442.38;4961276;28;1907;-90
2022/05/20 08:36:04;;;;;;;;;;;;;;;12.92;58.07;100444.84;4955458;28;4109;-91
2022/05/20 08:38:30;;;;;;;;;;;;;;;12.92;58.20;100442.16;4951330;28;4349;-92
2022/05/20 08:40:57;;;;;;;;;;;;;;;12.93;58.10;100441.09;4968269;28;2324;-92
2022/05/20 08:43:24;;;;;;;;;;;;;;;12.93;58.26;100443.78;4964210;28;1325;-92
2022/05/20 08:45:50;;;;;;;;;;;;;;;12.94;57.89;100440.88;4944299;28;4585;-92
2022/05/20 08:48:18;;;;;;;;;;;;;;;12.94;58.14;100440.88;4958114;28;4150;-92
2022/05/20 08:50:45;;;;;;;;;;;;;;;12.95;58.13;100434.38;4957605;28;1953;-91
2022/05/20 08:53:11;;;;;;;;;;;;;;;12.96;58.02;100427.09;4957900;29;1906;-92
2022/05/20 08:55:38;;;;;;;;;;;;;;;12.96;58.13;100432.50;4956881;28;2853;-91
2022/05/20 08:58:05;;;;;;;;;;;;;;;12.96;58.05;100433.31;4950136;29;1683;-92
2022/05/20 09:00:31;;;;;;;;;;;;;;;12.98;58.38;100421.47;4947129;28;2448;-92
2022/05/20 09:02:58;;;;;;;;;;;;;;;13.00;58.35;100435.53;4961338;28;1220;-91
2022/05/20 09:05:25;;;;;;;;;;;;;;;12.99;58.23;100434.72;4956994;28;4370;-91
2022/05/20 09:07:51;;;;;;;;;;;;;;;13.00;58.09;100425.56;4944828;29;1284;-92
2022/05/20 09:10:18;;;;;;;;;;;;;;;13.01;58.29;100429.91;4974241;28;2328;-92
2022/05/20 09:12:46;;;;;;;;;;;;;;;13.02;58.29;100425.31;4953843;28;2193;-92
2022/05/20 09:17:57;;;;;;;;;;;;;;;13.04;58.11;100431.31;4965959;28;1347;-92
2022/05/20 09:20:24;;;;;;;;;;;;;;;13.04;58.32;100428.63;4960227;28;4461;-91
2022/05/20 09:22:50;;;;;;;;;;;;;;;13.04;58.16;100424.03;4952692;28;1169;-92
2022/05/20 09:25:17;;;;;;;;;;;;;;;13.05;58.22;100417.53;4962809;28;2295;-91
2022/05/20 09:27:43;;;;;;;;;;;;;;;13.08;58.14;100424.38;4956966;28;2012;-92
2022/05/20 09:30:10;;;;;;;;;;;;;;;13.08;58.30;100424.38;4941917;28;4743;-92
2022/05/20 09:32:36;;;;;;;;;;;;;;;13.08;58.23;100419.78;4962206;28;3585;-92
2022/05/20 09:35:03;;;;;;;;;;;;;;;13.09;58.18;100416.03;4960254;28;1983;-91
2022/05/20 09:37:30;;;;;;;;;;;;;;;13.11;58.46;100426.59;4959501;28;1933;-92
2022/05/20 09:39:56;;;;;;;;;;;;;;;13.11;58.29;100427.41;4943945;28;2501;-91
2022/05/20 09:42:23;;;;;;;;;;;;;;;13.13;58.44;100425.28;4959895;28;1940;-92
2022/05/20 09:44:49;;;;;;;;;;;;;;;13.14;58.28;100435.03;4976220;28;2526;-91
2022/05/20 09:47:16;;;;;;;;;;;;;;;13.15;58.18;100430.47;4953414;28;4400;-92
2022/05/20 09:49:43;;;;;;;;;;;;;;;13.16;58.18;100421.28;4961682;28;1275;-92
2022/05/20 09:52:09;;;;;;;;;;;;;;;13.17;58.50;100423.75;4959159;28;2278;-92
2022/05/20 09:54:36;;;;;;;;;;;;;;;13.19;58.44;100428.91;4969152;28;4242;-92
2022/05/20 09:57:02;;;;;;;;;;;;;;;13.21;58.53;100436.78;4947751;28;1915;-92
2022/05/20 09:59:29;;;;;;;;;;;;;;;13.22;58.45;100430.31;4976567;28;1215;-91
2022/05/20 10:01:56;;;;;;;;;;;;;;;13.22;58.63;100433.84;4960831;28;2182;-92
2022/05/20 10:04:22;;;;;;;;;;;;;;;13.24;58.48;100437.16;4959985;28;1201;-93
2022/05/20 10:06:49;;;;;;;;;;;;;;;13.24;58.52;100431.72;4948380;28;4184;-92
2022/05/20 10:09:15;;;;;;;;;;;;;;;13.26;58.39;100428.81;4941471;28;1165;-92
2022/05/20 10:11:42;;;;;;;;;;;;;;;13.27;58.57;100422.34;4956314;28;1727;-92
2022/05/20 10:14:08;;;;;;;;;;;;;;;13.28;58.49;100429.41;4957292;28;1903;-92
2022/05/20 10:16:35;;;;;;;;;;;;;;;13.29;58.41;100423.72;4952463;28;5035;-92
2022/05/20 10:19:01;;;;;;;;;;;;;;;13.31;58.57;100428.91;4942473;29;1293;-92
2022/05/20 10:21:28;;;;;;;;;;;;;;;13.32;58.65;100417.84;4952756;29;1812;-92
2022/05/20 10:23:54;;;;;;;;;;;;;;;13.34;58.55;100429.25;4945993;28;2368;-92
2022/05/20 10:26:21;;;;;;;;;;;;;;;13.34;58.45;100420.31;4953529;28;2356;-93
2022/05/20 10:34:15;;;;;;;;;;;;;;;13.39;58.52;100421.25;4940285;29;1970;-92
2022/05/20 10:36:42;;;;;;;;;;;;;;;13.40;58.65;100416.66;4947337;28;4906;-92
2022/05/20 10:39:09;;;;;;;;;;;;;;;13.43;58.74;100426.16;4955759;28;1237;-92
2022/05/20 10:41:35;;;;;;;;;;;;;;;13.44;58.82;100428.63;4954379;28;1717;-93
2022/05/20 10:49:31;;;;;;;;;;;;;;;13.49;58.60;100426.00;4973670;28;1316;-92
2022/05/20 10:51:57;;;;;;;;;;;;;;;13.50;58.74;100422.25;4952635;28;4407;-92
2022/05/20 10:54:24;;;;;;;;;;;;;;;13.50;58.64;100424.97;4957542;28;2212;-92
2022/05/20 10:56:50;;;;;;;;;;;;;;;13.53;58.83;100429.03;4959562;28;1420;-93
2022/05/20 10:59:17;;;;;;;;;;;;;;;13.54;58.86;100431.53;4959428;28;1376;-92
2022/05/20 11:01:44;;;;;;;;;;;;;;;13.56;58.86;100433.97;4969098;28;4275;-92
2022/05/20 11:04:10;;;;;;;;;;;;;;;13.57;58.71;100432.94;4973970;28;1166;-92
2022/05/20 11:06:37;;;;;;;;;;;;;;;13.58;58.86;100424.56;4956574;28;1988;-93
2022/05/20 11:09:03;;;;;;;;;;;;;;;13.60;58.82;100433.25;4950061;28;2539;-93
2022/05/20 11:11:30;;;;;;;;;;;;;;;13.61;59.05;100431.38;4957703;28;2215;-92
2022/05/20 11:13:58;;;;;;;;;;;;;;;13.63;58.93;100423.84;4957934;28;2084;-90
2022/05/20 11:16:24;;;;;;;;;;;;;;;13.65;58.85;100424.44;4969462;28;2370;-93
2022/05/20 11:18:51;;;;;;;;;;;;;;;13.66;59.12;100417.94;4958988;28;1216;-92
2022/05/20 11:21:17;;;;;;;;;;;;;;;13.68;59.10;100417.69;4958010;28;2162;-93
2022/05/20 11:23:44;;;;;;;;;;;;;;;13.69;59.08;100425.56;4971242;28;4309;-92
2022/05/20 11:26:10;;;;;;;;;;;;;;;13.70;59.02;100424.50;4951221;28;1687;-92
2022/05/20 11:28:37;;;;;;;;;;;;;;;13.71;59.24;100412.63;4972856;28;1492;-92
2022/05/20 11:31:03;;;;;;;;;;;;;;;13.74;59.25;100411.31;4966618;28;2043;-92
2022/05/20 11:33:30;;;;;;;;;;;;;;;13.76;59.23;100422.72;4940514;28;1910;-92
2022/05/20 11:35:59;;;;;;;;;;;;;;;13.76;59.12;100412.69;4948280;28;4043;-91
2022/05/20 11:38:25;;;;;;;;;;;;;;;13.79;59.46;100414.09;4948746;29;1212;-92
2022/05/20 11:40:52;;;;;;;;;;;;;;;13.79;59.47;100408.69;4970656;28;2307;-92
2022/05/20 11:43:18;;;;;;;;;;;;;;;13.82;59.41;100408.19;4939542;29;3167;-92
2022/05/20 11:45:45;;;;;;;;;;;;;;;13.83;59.60;100399.84;4975142;28;4571;-92
2022/05/20 11:48:12;;;;;;;;;;;;;;;13.84;59.60;100401.47;4963389;28;4810;-92
2022/05/20 11:50:38;;;;;;;;;;;;;;;13.86;59.48;100401.25;4953744;28;1996;-92
2022/05/20 11:53:05;;;;;;;;;;;;;;;13.89;59.53;100408.88;4961382;28;2003;-92
2022/05/20 11:55:33;;;;;;;;;;;;;;;13.90;59.55;100398.84;4957896;28;2913;-89
2022/05/20 11:57:59;;;;;;;;;;;;;;;13.91;59.87;100403.19;4955381;28;4094;-92
2022/05/20 12:00:26;;;;;;;;;;;;;;;13.91;59.65;100404.00;4955848;28;2054;-91
2022/05/20 12:02:52;;;;;;;;;;;;;;;13.93;59.59;100410.00;4964190;28;1315;-92
2022/05/20 12:05:19;;;;;;;;;;;;;;;13.95;59.62;100426.03;4947016;28;2110;-92
2022/05/20 12:07:45;;;;;;;;;;;;;;;13.96;59.88;100425.75;4953356;28;2590;-92
2022/05/20 12:10:12;;;;;;;;;;;;;;;13.97;59.75;100432.84;4943106;28;3935;-92
2022/05/20 12:12:39;;;;;;;;;;;;;;;13.98;59.80;100423.63;4962672;28;2158;-92
2022/05/20 12:15:06;;;;;;;;;;;;;;;14.00;60.00;100418.81;4961598;28;2038;-91
2022/05/20 12:17:32;;;;;;;;;;;;;;;14.00;60.04;100426.94;4959730;28;862;-93
2022/05/20 12:25:42;;;;;;;;;;;;;;;14.05;59.96;100412.66;4916813;29;4152;-91
2022/05/20 12:28:08;;;;;;;;;;;;;;;14.06;60.11;100417.00;4922380;29;1799;-91
2022/05/20 12:30:35;;;;;;;;;;;;;;;14.07;59.98;100419.47;4934117;28;2040;-92
2022/05/20 12:33:01;;;;;;;;;;;;;;;14.07;60.07;100419.47;4942518;29;1975;-92
2022/05/20 12:35:28;;;;;;;;;;;;;;;14.09;60.16;100417.34;4964267;28;3883;-92
2022/05/20 12:37:55;;;;;;;;;;;;;;;14.09;60.21;100411.91;4948703;28;5074;-92
2022/05/20 12:40:21;;;;;;;;;;;;;;;14.11;60.21;100413.53;4957302;28;2104;-92
2022/05/20 12:42:49;;;;;;;;;;;;;;;14.13;60.15;100403.31;4949527;28;2067;-92
2022/05/20 12:45:16;;;;;;;;;;;;;;;14.14;60.20;100405.75;4955689;28;4098;-91
2022/05/20 12:47:42;;;;;;;;;;;;;;;14.16;60.18;100397.38;4965861;28;3729;-92
2022/05/20 12:50:09;;;;;;;;;;;;;;;14.17;60.23;100404.44;4961278;28;1998;-91
2022/05/20 12:52:35;;;;;;;;;;;;;;;14.18;60.11;100400.69;4951869;28;2069;-91
2022/05/20 12:55:02;;;;;;;;;;;;;;;14.20;60.27;100409.34;4961008;28;2068;-90
2022/05/20 12:57:28;;;;;;;;;;;;;;;14.19;60.05;100407.72;4961714;28;1308;-91
2022/05/20 12:59:56;;;;;;;;;;;;;;;14.21;60.30;100413.72;4961898;28;2170;-91
2022/05/20 13:02:23;;;;;;;;;;;;;;;14.22;60.14;100412.66;4951270;28;2666;-91
2022/05/20 13:04:49;;;;;;;;;;;;;;;14.23;60.17;100411.56;4951884;28;2110;-91
2022/05/20 13:07:17;;;;;;;;;;;;;;;14.23;60.23;100412.38;4950162;28;2234;-91
2022/05/20 13:09:44;;;;;;;;;;;;;;;14.23;60.40;100408.88;4956532;28;2186;-92
2022/05/20 13:12:13;;;;;;;;;;;;;;;14.25;60.45;100401.31;4957891;28;2707;-92
2022/05/20 13:14:40;;;;;;;;;;;;;;;14.25;60.40;100401.31;4977779;28;1964;-91
2022/05/20 13:17:07;;;;;;;;;;;;;;;14.27;60.34;100399.19;4945909;28;5027;-90
2022/05/20 13:19:33;;;;;;;;;;;;;;;14.27;60.50;100397.28;4962245;28;1678;-92
2022/05/20 13:22:00;;;;;;;;;;;;;;;14.29;60.32;100391.63;4959474;28;2011;-91
2022/05/20 13:24:26;;;;;;;;;;;;;;;14.30;60.39;100393.28;4973255;28;1290;-91
2022/05/20 13:26:53;;;;;;;;;;;;;;;14.30;60.33;100393.28;4956249;28;2519;-92